Time;durP1;ratioP1;P1;durP2;ratioP2;P2;SDS_P1;SDS_P2;PMS_P1;PMS_P2;Temp;Humidity;BMP_temperature;BMP_pressure;BME280_temperature;BME280_humidity;BME280_pressure;Samples;Min_cycle;Max_cycle;Signal;HPM_P1;HPM_P2
2022/11/22 00:00:38;;;;;;;32.88;16.67;;;4.20;99.90;;;;;;5035738;28;20079;-84
2022/11/22 00:03:04;;;;;;;30.75;17.45;;;2.90;99.90;;;;;;5036115;28;20049;-85
2022/11/22 00:05:29;;;;;;;39.40;18.35;;;2.90;99.90;;;;;;5036037;28;20052;-85
2022/11/22 00:07:55;;;;;;;30.50;14.45;;;2.90;99.90;;;;;;5037298;28;20049;-86
2022/11/22 00:10:21;;;;;;;31.20;16.55;;;2.90;99.90;;;;;;5056820;28;20049;-85
2022/11/22 00:12:46;;;;;;;25.70;13.45;;;2.90;99.90;;;;;;5036232;28;20048;-85
2022/11/22 00:15:13;;;;;;;34.05;17.23;;;3.00;99.90;;;;;;5035909;28;20572;-84
2022/11/22 00:17:40;;;;;;;32.95;15.88;;;3.10;99.90;;;;;;5036308;28;20109;-84
2022/11/22 00:20:06;;;;;;;36.53;18.08;;;3.60;99.90;;;;;;5052079;28;20048;-84
2022/11/22 00:22:32;;;;;;;28.88;13.68;;;2.90;99.90;;;;;;5035980;28;20045;-85
2022/11/22 00:24:58;;;;;;;33.03;16.73;;;2.90;99.90;;;;;;5052126;28;20392;-84
2022/11/22 00:27:23;;;;;;;37.00;18.33;;;2.90;99.90;;;;;;5035697;28;20059;-84
2022/11/22 00:29:49;;;;;;;22.17;11.88;;;2.90;99.90;;;;;;5052676;28;20103;-85
2022/11/22 00:32:15;;;;;;;35.63;17.55;;;2.90;99.90;;;;;;5035932;28;20454;-82
2022/11/22 00:34:40;;;;;;;38.90;18.35;;;3.80;99.90;;;;;;5042573;28;20053;-84
2022/11/22 00:37:06;;;;;;;35.03;17.15;;;3.00;99.90;;;;;;5037393;28;20138;-85
2022/11/22 00:39:32;;;;;;;32.17;16.42;;;3.00;99.90;;;;;;5035575;28;20045;-85
2022/11/22 00:41:58;;;;;;;31.70;17.05;;;3.50;99.90;;;;;;5035340;28;20045;-85
2022/11/22 00:44:23;;;;;;;34.35;17.33;;;3.10;99.90;;;;;;5035481;28;20053;-85
2022/11/22 00:46:49;;;;;;;24.77;13.73;;;2.90;99.90;;;;;;5051293;28;20128;-85
2022/11/22 00:49:15;;;;;;;34.08;17.73;;;3.00;99.90;;;;;;5051844;28;20045;-86
2022/11/22 00:51:40;;;;;;;33.58;16.55;;;2.90;99.90;;;;;;5035469;28;20385;-86
2022/11/22 00:54:06;;;;;;;33.72;16.00;;;3.40;99.90;;;;;;5034582;28;20051;-84
2022/11/22 00:56:32;;;;;;;33.95;17.80;;;3.00;99.90;;;;;;5034836;28;20500;-85
2022/11/22 00:58:58;;;;;;;36.65;17.15;;;3.10;99.90;;;;;;5034982;28;20405;-85
2022/11/22 01:01:23;;;;;;;40.28;18.55;;;3.00;99.90;;;;;;5034997;28;20080;-85
2022/11/22 01:03:49;;;;;;;26.15;14.07;;;3.00;99.90;;;;;;5035174;28;20468;-86
2022/11/22 01:06:18;;;;;;;33.47;16.80;;;3.10;99.90;;;;;;5052611;28;20080;-87
2022/11/22 01:08:45;;;;;;;36.47;18.58;;;3.10;99.90;;;;;;5035342;28;20456;-85
2022/11/22 01:11:11;;;;;;;44.38;19.65;;;3.90;99.90;;;;;;5034712;28;20041;-84
2022/11/22 01:13:36;;;;;;;35.42;17.70;;;3.20;99.90;;;;;;5034958;28;20049;-86
2022/11/22 01:16:06;;;;;;;37.38;18.50;;;3.50;99.90;;;;;;5034110;28;20076;-85
2022/11/22 01:18:33;;;;;;;39.30;18.80;;;3.00;99.90;;;;;;5035187;28;20049;-86
2022/11/22 01:20:58;;;;;;;32.92;17.20;;;3.10;99.90;;;;;;5041439;28;20048;-86
2022/11/22 01:23:24;;;;;;;37.28;19.70;;;3.10;99.90;;;;;;5036982;28;20500;-84
2022/11/22 01:25:50;;;;;;;30.67;15.07;;;3.10;99.90;;;;;;5034789;28;20091;-85
2022/11/22 01:28:16;;;;;;;37.55;17.63;;;3.10;99.90;;;;;;5034330;28;20126;-85
2022/11/22 01:30:42;;;;;;;32.45;16.25;;;4.00;99.90;;;;;;5050981;28;20397;-85
2022/11/22 01:33:08;;;;;;;37.58;17.75;;;3.70;99.90;;;;;;5034328;28;20045;-86
2022/11/22 01:35:34;;;;;;;40.25;19.23;;;4.20;99.90;;;;;;5034785;28;20130;-86
2022/11/22 01:38:00;;;;;;;33.55;16.35;;;3.40;99.90;;;;;;5051266;28;20048;-86
2022/11/22 01:40:25;;;;;;;37.90;17.30;;;3.20;99.90;;;;;;5034630;28;20119;-85
2022/11/22 01:42:53;;;;;;;34.20;17.27;;;4.20;99.90;;;;;;5035566;28;20071;-82
2022/11/22 01:45:31;;;;;;;34.30;16.65;;;4.20;99.90;;;;;;5035417;28;20079;-83
2022/11/22 01:48:00;;;;;;;38.75;19.10;;;3.70;99.90;;;;;;5053096;28;20128;-83
2022/11/22 01:50:27;;;;;;;36.35;19.27;;;3.20;99.90;;;;;;5051840;28;20114;-84
2022/11/22 01:52:53;;;;;;;33.85;17.58;;;3.20;99.90;;;;;;5034412;28;20052;-84
2022/11/22 01:55:18;;;;;;;37.28;18.42;;;3.30;99.90;;;;;;5033331;28;20049;-85
2022/11/22 01:57:44;;;;;;;36.78;17.40;;;3.30;99.90;;;;;;5034442;28;20075;-86
2022/11/22 02:00:15;;;;;;;35.60;19.60;;;3.20;99.90;;;;;;5034164;28;20056;-84
2022/11/22 02:02:41;;;;;;;38.00;19.05;;;3.20;99.90;;;;;;5034983;28;20110;-85
2022/11/22 02:05:15;;;;;;;29.58;15.18;;;3.30;99.90;;;;;;5034107;28;20049;-86
2022/11/22 02:07:46;;;;;;;33.95;17.33;;;3.40;99.90;;;;;;5017993;28;20041;-85
2022/11/22 02:10:13;;;;;;;34.53;17.10;;;3.40;99.90;;;;;;5034704;28;20056;-84
2022/11/22 02:12:39;;;;;;;24.65;13.38;;;3.30;99.90;;;;;;5034541;28;20040;-85
2022/11/22 02:15:06;;;;;;;32.05;16.80;;;3.60;99.90;;;;;;5034455;28;20450;-86
2022/11/22 02:17:33;;;;;;;33.55;16.75;;;3.30;99.90;;;;;;5038931;28;20140;-85
2022/11/22 02:19:58;;;;;;;39.90;19.67;;;3.40;99.90;;;;;;5035281;28;20056;-85
2022/11/22 02:23:11;;;;;;;37.92;18.27;;;3.60;99.90;;;;;;5033970;28;20045;-86
2022/11/22 02:25:39;;;;;;;36.17;18.73;;;3.30;99.90;;;;;;4962689;28;20050;-83
2022/11/22 02:28:06;;;;;;;41.92;19.73;;;3.30;99.90;;;;;;5018450;28;20451;-85
2022/11/22 02:30:31;;;;;;;38.92;17.67;;;3.20;99.90;;;;;;5040195;28;20041;-85
2022/11/22 02:32:57;;;;;;;32.80;16.95;;;3.30;99.90;;;;;;5021978;28;20092;-85
2022/11/22 02:35:25;;;;;;;39.00;19.52;;;3.80;99.90;;;;;;5041385;28;20053;-85
2022/11/22 02:37:58;;;;;;;30.77;14.98;;;4.10;99.90;;;;;;5006765;28;20110;-85
2022/11/22 02:40:25;;;;;;;18.90;8.73;;;3.40;99.90;;;;;;5033791;28;20049;-86
2022/11/22 02:42:56;;;;;;;36.55;16.80;;;3.40;99.90;;;;;;4998012;28;20558;-85
2022/11/22 02:45:21;;;;;;;34.90;17.70;;;3.40;99.90;;;;;;5030699;28;20548;-84
2022/11/22 02:47:47;;;;;;;30.55;14.90;;;3.90;99.90;;;;;;5046829;28;20259;-85
2022/11/22 02:50:13;;;;;;;35.78;16.92;;;3.40;99.90;;;;;;5013833;28;20041;-86
2022/11/22 02:52:39;;;;;;;31.88;15.88;;;3.40;99.90;;;;;;5014486;28;20056;-85
2022/11/22 02:55:06;;;;;;;28.70;15.20;;;3.70;99.90;;;;;;5030261;28;20045;-86
2022/11/22 02:57:32;;;;;;;36.17;16.75;;;3.50;99.90;;;;;;5014196;28;20049;-86
2022/11/22 02:59:57;;;;;;;37.65;18.70;;;3.80;99.90;;;;;;5017591;28;20052;-83
2022/11/22 03:02:24;;;;;;;38.88;18.42;;;3.40;99.90;;;;;;5020670;28;20056;-82
2022/11/22 03:04:49;;;;;;;38.97;18.73;;;3.50;99.90;;;;;;5002132;28;20131;-86
2022/11/22 03:07:16;;;;;;;43.55;19.40;;;3.40;99.90;;;;;;5016802;28;20042;-87
2022/11/22 03:09:42;;;;;;;40.78;17.70;;;4.80;99.90;;;;;;5017968;28;20151;-87
2022/11/22 03:12:09;;;;;;;45.92;19.55;;;3.90;99.90;;;;;;5017310;28;20077;-86
2022/11/22 03:14:41;;;;;;;38.13;18.02;;;4.50;99.90;;;;;;5021482;28;20080;-84
2022/11/22 03:17:07;;;;;;;38.65;18.30;;;3.50;99.90;;;;;;5038093;28;20061;-85
2022/11/22 03:19:33;;;;;;;39.33;17.55;;;3.40;99.90;;;;;;5033891;28;20425;-86
2022/11/22 03:21:58;;;;;;;39.10;17.15;;;3.40;99.90;;;;;;5017709;28;20057;-84
2022/11/22 03:24:24;;;;;;;40.17;18.35;;;3.50;99.90;;;;;;5036495;28;20041;-84
2022/11/22 03:26:49;;;;;;;41.83;18.88;;;3.60;99.90;;;;;;5021023;28;20406;-84
2022/11/22 03:29:16;;;;;;;39.05;18.15;;;3.90;99.90;;;;;;5017219;28;20098;-85
2022/11/22 03:31:42;;;;;;;44.08;19.05;;;3.50;99.90;;;;;;5033790;28;20379;-85
2022/11/22 03:34:08;;;;;;;39.00;17.92;;;3.50;99.90;;;;;;5017276;28;20046;-86
2022/11/22 03:36:34;;;;;;;40.33;17.80;;;3.50;99.90;;;;;;5017029;28;20060;-85
2022/11/22 03:38:59;;;;;;;48.08;19.45;;;4.20;99.90;;;;;;5017319;28;20108;-85
2022/11/22 03:41:25;;;;;;;45.67;20.00;;;3.50;99.90;;;;;;5016483;28;20053;-85
2022/11/22 03:43:51;;;;;;;45.38;19.83;;;3.80;99.90;;;;;;5017064;28;20049;-85
2022/11/22 03:46:18;;;;;;;31.10;14.00;;;3.50;99.90;;;;;;5032813;28;20062;-84
2022/11/22 03:48:44;;;;;;;40.55;19.35;;;4.40;99.90;;;;;;5017241;28;20118;-86
2022/11/22 03:51:10;;;;;;;39.22;19.00;;;3.60;99.90;;;;;;5017288;28;20056;-85
2022/11/22 03:53:36;;;;;;;42.83;17.08;;;4.50;99.90;;;;;;5033020;28;20140;-85
2022/11/22 03:56:01;;;;;;;46.05;20.02;;;3.50;99.90;;;;;;5033460;28;20046;-85
2022/11/22 03:58:27;;;;;;;45.05;19.67;;;3.50;99.90;;;;;;5032626;28;20052;-85
2022/11/22 04:00:53;;;;;;;44.97;19.52;;;3.50;99.90;;;;;;5033180;28;20053;-85
2022/11/22 04:03:18;;;;;;;50.30;19.48;;;3.50;99.90;;;;;;5016724;28;20053;-85
2022/11/22 04:05:44;;;;;;;45.03;19.33;;;3.50;99.90;;;;;;5032599;28;20072;-85
2022/11/22 04:08:10;;;;;;;45.22;20.45;;;3.50;99.90;;;;;;5033146;28;20067;-87
2022/11/22 04:10:36;;;;;;;43.20;18.80;;;4.60;99.90;;;;;;5002035;28;20563;-86
2022/11/22 04:13:01;;;;;;;43.75;19.55;;;3.80;99.90;;;;;;5003187;28;20053;-83
2022/11/22 04:15:27;;;;;;;45.47;19.20;;;3.60;99.90;;;;;;5034846;28;20042;-84
2022/11/22 04:17:53;;;;;;;41.33;19.58;;;3.60;99.90;;;;;;5033650;28;20064;-85
2022/11/22 04:23:05;;;;;;;44.40;19.13;;;3.60;99.90;;;;;;5018948;28;20084;-84
2022/11/22 04:25:32;;;;;;;45.60;20.67;;;3.90;99.90;;;;;;5016261;28;20127;-86
2022/11/22 04:27:57;;;;;;;45.30;19.88;;;4.70;99.90;;;;;;5032325;28;20045;-85
2022/11/22 04:33:12;;;;;;;49.17;19.77;;;3.50;99.90;;;;;;5001114;28;20460;-86
2022/11/22 04:35:38;;;;;;;45.08;20.33;;;3.60;99.90;;;;;;5033289;28;20132;-86
2022/11/22 04:38:04;;;;;;;46.60;19.60;;;4.70;99.90;;;;;;5017081;28;20056;-85
2022/11/22 04:40:30;;;;;;;49.17;19.42;;;4.20;99.90;;;;;;5016354;28;20139;-86
2022/11/22 04:45:40;;;;;;;47.25;20.63;;;3.90;99.90;;;;;;5031811;28;20058;-85
2022/11/22 04:48:06;;;;;;;42.97;19.42;;;3.70;99.90;;;;;;5043752;28;20053;-86
2022/11/22 04:53:16;;;;;;;43.63;19.58;;;5.10;99.90;;;;;;5041714;28;20060;-85
2022/11/22 04:55:43;;;;;;;44.63;19.33;;;3.70;99.90;;;;;;5036892;28;20052;-85
2022/11/22 04:58:10;;;;;;;47.55;19.50;;;3.70;99.90;;;;;;5052299;28;20048;-86
2022/11/22 05:00:36;;;;;;;48.10;21.20;;;4.20;99.90;;;;;;5050055;28;20074;-84
2022/11/22 05:03:02;;;;;;;48.65;20.25;;;3.70;99.90;;;;;;5059223;28;20079;-84
2022/11/22 05:05:28;;;;;;;51.78;21.50;;;3.70;99.90;;;;;;5070733;28;20051;-84
2022/11/22 05:07:54;;;;;;;41.50;20.33;;;3.70;99.90;;;;;;5019548;28;20049;-85
2022/11/22 05:10:20;;;;;;;50.15;20.88;;;4.60;99.90;;;;;;5036235;28;20056;-85
2022/11/22 05:12:45;;;;;;;46.30;19.20;;;3.80;99.90;;;;;;5055808;28;20045;-86
2022/11/22 05:15:11;;;;;;;49.92;20.10;;;3.90;99.90;;;;;;5021933;28;20045;-85
2022/11/22 05:17:37;;;;;;;46.75;21.42;;;3.90;99.90;;;;;;5018840;28;20056;-86
2022/11/22 05:20:07;;;;;;;47.95;19.02;;;3.90;99.90;;;;;;5052198;28;20049;-85
2022/11/22 05:25:17;;;;;;;48.15;19.30;;;3.90;99.90;;;;;;5023927;28;20397;-85
2022/11/22 05:27:43;;;;;;;49.15;21.52;;;4.90;99.90;;;;;;5003479;28;20107;-82
2022/11/22 05:30:08;;;;;;;45.60;20.23;;;3.90;99.90;;;;;;5040018;28;20075;-85
2022/11/22 05:32:34;;;;;;;52.53;19.90;;;3.90;99.90;;;;;;5034692;28;20485;-85
2022/11/22 05:35:00;;;;;;;49.85;19.35;;;3.90;99.90;;;;;;5034821;28;20084;-84
2022/11/22 05:37:26;;;;;;;39.85;19.08;;;4.00;99.90;;;;;;5035158;28;20049;-85
2022/11/22 05:39:51;;;;;;;47.22;21.05;;;4.10;99.90;;;;;;5034977;28;20064;-87
2022/11/22 05:42:17;;;;;;;48.88;19.08;;;5.10;99.90;;;;;;5051321;28;20558;-85
2022/11/22 05:44:43;;;;;;;45.63;19.23;;;4.00;99.90;;;;;;5035297;28;20394;-85
2022/11/22 05:47:09;;;;;;;44.92;19.35;;;4.10;99.90;;;;;;5055228;28;20123;-86
2022/11/22 05:49:35;;;;;;;42.08;18.38;;;4.10;99.90;;;;;;5038004;28;20047;-85
2022/11/22 05:52:01;;;;;;;38.75;17.85;;;4.10;99.90;;;;;;5022012;28;20045;-86
2022/11/22 05:54:27;;;;;;;46.65;19.17;;;5.40;99.90;;;;;;5038228;28;20083;-85
2022/11/22 05:56:53;;;;;;;49.55;20.00;;;4.10;99.90;;;;;;5038356;28;20053;-85
2022/11/22 05:59:19;;;;;;;44.33;18.77;;;4.10;99.90;;;;;;5038173;28;20044;-85
2022/11/22 06:01:46;;;;;;;43.78;19.25;;;4.40;99.90;;;;;;5054818;28;20120;-86
2022/11/22 06:04:11;;;;;;;43.85;19.52;;;4.70;99.90;;;;;;5038181;28;20048;-86
2022/11/22 06:06:37;;;;;;;42.72;18.85;;;4.30;99.90;;;;;;5038212;28;20484;-85
2022/11/22 06:09:03;;;;;;;47.70;19.75;;;4.10;99.90;;;;;;5038247;28;20109;-86
2022/11/22 06:11:29;;;;;;;40.25;18.92;;;5.20;99.90;;;;;;5037611;28;20037;-84
2022/11/22 06:13:59;;;;;;;42.85;19.15;;;4.20;99.90;;;;;;5037573;28;20388;-85
2022/11/22 06:16:25;;;;;;;45.47;19.85;;;4.50;99.90;;;;;;5038859;28;20048;-86
2022/11/22 06:18:52;;;;;;;49.15;21.40;;;4.20;99.90;;;;;;5041915;28;20114;-85
2022/11/22 06:21:22;;;;;;;41.38;18.55;;;5.60;99.90;;;;;;5040815;28;20056;-83
2022/11/22 06:23:47;;;;;;;45.75;19.63;;;4.30;99.90;;;;;;5038061;28;20045;-86
2022/11/22 06:26:15;;;;;;;41.92;20.08;;;4.30;99.90;;;;;;5037416;28;20051;-87
2022/11/22 06:28:41;;;;;;;42.97;20.10;;;4.20;99.90;;;;;;5037405;28;20060;-85
2022/11/22 06:31:11;;;;;;;47.50;20.50;;;4.20;99.90;;;;;;5036777;28;20058;-86
2022/11/22 06:33:38;;;;;;;42.03;18.65;;;4.20;99.90;;;;;;5038500;28;20052;-86
2022/11/22 06:36:08;;;;;;;48.38;20.38;;;5.60;99.90;;;;;;5041404;28;20052;-86
2022/11/22 06:38:34;;;;;;;47.00;20.38;;;4.20;99.90;;;;;;5040980;28;20055;-86
2022/11/22 06:41:01;;;;;;;43.63;19.58;;;4.40;99.90;;;;;;5057071;28;20040;-84
2022/11/22 06:43:30;;;;;;;38.33;17.95;;;4.30;99.90;;;;;;5042136;28;20041;-82
2022/11/22 06:45:59;;;;;;;41.35;18.42;;;4.20;99.90;;;;;;5057264;28;20400;-85
2022/11/22 06:48:28;;;;;;;47.00;19.33;;;4.30;99.90;;;;;;5058311;28;20049;-86
2022/11/22 06:51:04;;;;;;;41.92;19.67;;;4.30;99.90;;;;;;5058101;28;20076;-86
2022/11/22 06:53:30;;;;;;;48.20;20.95;;;4.30;99.90;;;;;;5058356;28;20060;-85
2022/11/22 06:56:19;;;;;;;51.80;21.50;;;4.60;99.90;;;;;;5059623;28;20059;-85
2022/11/22 06:58:45;;;;;;;44.03;19.70;;;4.30;99.90;;;;;;5042875;28;20049;-85
2022/11/22 07:01:12;;;;;;;52.05;20.05;;;4.30;99.90;;;;;;5059816;28;20253;-85
2022/11/22 07:03:39;;;;;;;42.47;19.23;;;4.40;99.90;;;;;;5043211;28;20133;-86
2022/11/22 07:06:11;;;;;;;45.00;20.00;;;4.70;99.90;;;;;;5043090;28;20087;-86
2022/11/22 07:08:37;;;;;;;42.53;19.52;;;4.50;99.90;;;;;;5042439;28;20053;-86
2022/11/22 07:11:10;;;;;;;42.58;18.27;;;4.70;99.90;;;;;;5058993;28;20495;-86
2022/11/22 07:13:36;;;;;;;51.30;19.30;;;5.40;99.90;;;;;;5043054;28;20053;-85
2022/11/22 07:16:03;;;;;;;50.30;19.67;;;4.50;99.90;;;;;;5042027;28;20052;-85
2022/11/22 07:18:29;;;;;;;42.55;18.73;;;4.60;99.90;;;;;;5041707;28;20052;-86
2022/11/22 07:21:03;;;;;;;42.35;19.38;;;4.60;99.90;;;;;;5041715;28;20060;-86
2022/11/22 07:23:29;;;;;;;43.17;18.83;;;4.70;99.90;;;;;;5042039;28;20404;-85
2022/11/22 07:25:54;;;;;;;45.72;18.85;;;4.70;99.90;;;;;;5057664;28;20040;-86
2022/11/22 07:28:21;;;;;;;47.45;18.52;;;4.70;99.90;;;;;;5057658;28;20125;-85
2022/11/22 07:30:47;;;;;;;40.05;18.50;;;4.80;99.90;;;;;;5058269;28;20048;-84
2022/11/22 07:33:13;;;;;;;40.03;18.35;;;5.50;99.90;;;;;;5073929;28;20071;-84
2022/11/22 07:35:38;;;;;;;44.08;18.70;;;4.80;99.90;;;;;;5044020;28;20059;-85
2022/11/22 07:38:04;;;;;;;41.15;18.25;;;4.80;99.90;;;;;;5057541;28;20106;-86
2022/11/22 07:40:29;;;;;;;43.08;18.17;;;6.00;99.90;;;;;;5041427;28;20044;-86
2022/11/22 07:42:55;;;;;;;40.67;17.85;;;5.20;99.90;;;;;;5056954;28;20057;-86
2022/11/22 07:45:21;;;;;;;41.88;17.33;;;5.00;99.90;;;;;;5057110;28;20135;-84
2022/11/22 07:47:48;;;;;;;42.72;18.30;;;4.90;99.90;;;;;;5061664;28;20048;-85
2022/11/22 07:50:14;;;;;;;39.90;16.95;;;5.00;99.90;;;;;;5057070;28;20127;-86
2022/11/22 07:52:40;;;;;;;34.58;14.55;;;5.00;99.90;;;;;;5039942;28;20135;-83
2022/11/22 07:55:06;;;;;;;28.25;13.63;;;5.10;99.90;;;;;;5039898;28;20056;-82
2022/11/22 07:57:32;;;;;;;30.13;13.10;;;5.20;99.90;;;;;;5041224;28;20096;-83
2022/11/22 07:59:57;;;;;;;27.42;12.45;;;5.90;99.90;;;;;;5024414;28;20040;-86
2022/11/22 08:02:23;;;;;;;31.88;13.10;;;5.30;99.90;;;;;;5047609;28;20174;-86
2022/11/22 08:04:55;;;;;;;27.00;10.82;;;5.40;99.90;;;;;;5037218;28;20048;-86
2022/11/22 08:07:20;;;;;;;28.38;11.25;;;5.50;99.90;;;;;;5049041;28;20037;-86
2022/11/22 08:09:46;;;;;;;22.08;10.73;;;5.50;99.90;;;;;;5063851;28;20071;-85
2022/11/22 08:12:12;;;;;;;26.15;10.85;;;5.50;99.90;;;;;;5048309;28;20063;-85
2022/11/22 08:14:37;;;;;;;21.45;9.68;;;5.40;99.90;;;;;;5034073;28;20037;-85
2022/11/22 08:17:03;;;;;;;25.83;9.43;;;5.40;99.90;;;;;;5039498;28;20067;-84
2022/11/22 08:19:29;;;;;;;22.17;8.70;;;5.60;99.90;;;;;;5080143;28;20037;-86
2022/11/22 08:21:55;;;;;;;21.65;8.25;;;5.70;99.90;;;;;;5065984;28;20101;-84
2022/11/22 08:24:21;;;;;;;19.63;8.70;;;6.90;99.90;;;;;;5042181;28;20094;-85
2022/11/22 08:26:47;;;;;;;33.40;9.60;;;5.60;99.90;;;;;;5075183;28;20048;-83
2022/11/22 08:29:12;;;;;;;18.55;8.02;;;5.70;99.90;;;;;;5036336;28;20128;-85
2022/11/22 08:31:38;;;;;;;16.63;8.07;;;5.80;99.90;;;;;;5014668;28;20045;-86
2022/11/22 08:34:04;;;;;;;26.85;9.00;;;7.30;99.90;;;;;;5027105;28;20106;-85
2022/11/22 08:36:30;;;;;;;20.83;8.43;;;5.70;99.90;;;;;;5014390;28;20047;-85
2022/11/22 08:38:55;;;;;;;18.65;6.95;;;5.70;99.90;;;;;;5035666;28;20055;-85
2022/11/22 08:41:21;;;;;;;22.50;7.13;;;5.80;99.90;;;;;;5038517;28;20395;-85
2022/11/22 08:43:50;;;;;;;18.30;7.07;;;6.40;99.90;;;;;;5036208;28;20094;-85
2022/11/22 08:46:16;;;;;;;16.15;6.05;;;6.70;99.90;;;;;;5036881;28;20495;-86
2022/11/22 08:48:42;;;;;;;26.42;6.60;;;5.70;99.90;;;;;;5038044;28;20059;-86
2022/11/22 08:51:08;;;;;;;16.35;6.00;;;5.80;99.90;;;;;;5054780;28;20036;-86
2022/11/22 08:53:40;;;;;;;24.42;6.47;;;5.70;99.90;;;;;;5046542;28;20048;-87
2022/11/22 08:56:08;;;;;;;13.88;5.40;;;5.80;99.90;;;;;;5032605;28;20128;-84
2022/11/22 08:58:34;;;;;;;14.23;5.47;;;5.80;99.90;;;;;;5048534;28;20489;-87
2022/11/22 09:01:04;;;;;;;16.40;5.82;;;5.70;99.90;;;;;;5014864;28;20048;-85
2022/11/22 09:03:30;;;;;;;10.80;5.30;;;5.80;99.90;;;;;;5031577;28;20048;-85
2022/11/22 09:06:03;;;;;;;16.88;5.50;;;5.90;99.90;;;;;;5045027;28;20036;-87
2022/11/22 09:08:32;;;;;;;21.70;5.53;;;6.10;99.90;;;;;;5037468;28;20052;-85
2022/11/22 09:11:02;;;;;;;15.65;4.85;;;6.10;99.90;;;;;;5029731;28;20052;-84
2022/11/22 09:13:28;;;;;;;18.27;5.45;;;6.30;99.90;;;;;;5027464;28;20045;-85
2022/11/22 09:15:54;;;;;;;13.05;4.50;;;6.50;99.90;;;;;;5048678;28;20079;-85
2022/11/22 09:18:19;;;;;;;14.27;4.40;;;7.50;99.90;;;;;;5028530;28;20045;-85
2022/11/22 09:20:45;;;;;;;11.82;3.63;;;6.50;99.90;;;;;;5028656;28;20044;-85
2022/11/22 09:23:11;;;;;;;10.50;3.47;;;7.10;99.90;;;;;;5028860;28;20044;-85
2022/11/22 09:25:36;;;;;;;18.30;4.50;;;6.50;99.90;;;;;;5043742;28;20043;-86
2022/11/22 09:28:02;;;;;;;14.98;3.13;;;6.50;99.90;;;;;;5024406;28;20413;-85
2022/11/22 09:30:29;;;;;;;10.70;3.65;;;6.50;99.90;;;;;;5045396;28;20135;-84
2022/11/22 09:32:54;;;;;;;12.45;3.25;;;6.50;99.90;;;;;;5026539;28;20053;-84
2022/11/22 09:35:20;;;;;;;13.13;3.30;;;6.40;99.90;;;;;;5029658;28;20501;-86
2022/11/22 09:37:46;;;;;;;8.90;3.17;;;6.40;99.90;;;;;;5030583;28;20481;-85
2022/11/22 09:40:12;;;;;;;15.98;3.60;;;6.40;99.90;;;;;;5026546;28;20254;-86
2022/11/22 09:43:04;;;;;;;11.95;3.30;;;6.40;99.90;;;;;;5043540;28;20049;-86
2022/11/22 09:45:37;;;;;;;15.88;3.30;;;6.40;99.90;;;;;;5036826;28;20083;-85
2022/11/22 09:48:21;;;;;;;12.45;2.95;;;6.50;99.90;;;;;;5052560;28;20095;-86
2022/11/22 09:51:08;;;;;;;12.90;4.00;;;6.50;99.90;;;;;;5039033;28;20048;-84
2022/11/22 09:53:42;;;;;;;11.52;3.30;;;6.50;99.90;;;;;;5030756;28;20076;-84
2022/11/22 09:56:12;;;;;;;8.00;2.97;;;6.60;99.90;;;;;;5030084;28;20044;-84
2022/11/22 09:58:57;;;;;;;12.35;3.15;;;6.60;99.90;;;;;;5026413;28;20122;-84
2022/11/22 10:01:30;;;;;;;10.80;3.28;;;6.60;99.90;;;;;;5031009;28;20045;-85
2022/11/22 10:04:03;;;;;;;10.60;3.15;;;6.50;99.90;;;;;;5042969;28;20503;-84
2022/11/22 10:06:31;;;;;;;12.23;3.33;;;7.60;99.90;;;;;;5041940;28;20040;-84
2022/11/22 10:09:06;;;;;;;10.00;3.40;;;6.50;99.90;;;;;;5011843;28;20307;-83
2022/11/22 10:12:02;;;;;;;12.48;3.25;;;6.60;99.90;;;;;;5028896;28;20124;-84
2022/11/22 10:14:45;;;;;;;7.13;2.70;;;6.60;99.90;;;;;;5043169;28;20060;-83
2022/11/22 10:17:28;;;;;;;12.27;2.80;;;6.60;99.90;;;;;;5035115;28;20082;-85
2022/11/22 10:20:18;;;;;;;12.48;2.80;;;6.70;99.90;;;;;;5051902;28;20489;-84
2022/11/22 10:22:44;;;;;;;10.73;3.10;;;6.70;99.90;;;;;;5045061;28;20114;-82
2022/11/22 10:25:38;;;;;;;8.10;3.10;;;6.80;99.90;;;;;;5043828;28;20037;-83
2022/11/22 10:28:18;;;;;;;15.82;4.47;;;6.80;99.90;;;;;;5028464;28;20048;-85
2022/11/22 10:31:09;;;;;;;7.93;2.40;;;6.70;99.90;;;;;;5019592;28;20110;-84
2022/11/22 10:33:59;;;;;;;12.52;2.67;;;6.70;99.90;;;;;;5016194;28;20060;-84
2022/11/22 10:36:41;;;;;;;9.63;2.22;;;6.70;99.90;;;;;;5021409;28;20561;-85
2022/11/22 10:39:26;;;;;;;10.05;2.85;;;6.70;99.90;;;;;;5052408;28;20084;-84
2022/11/22 10:42:15;;;;;;;12.55;2.50;;;6.80;99.90;;;;;;5035213;28;20057;-84
2022/11/22 10:45:01;;;;;;;4.30;2.05;;;6.70;99.90;;;;;;5034661;28;20052;-84
2022/11/22 10:48:00;;;;;;;7.82;2.78;;;6.80;99.90;;;;;;5018369;28;20116;-84
2022/11/22 10:50:57;;;;;;;8.95;2.33;;;6.80;99.90;;;;;;5017493;28;20045;-84
2022/11/22 10:53:41;;;;;;;8.70;2.20;;;6.80;99.90;;;;;;5020905;28;20497;-84
2022/11/22 10:56:30;;;;;;;5.65;2.20;;;6.80;99.90;;;;;;5037149;28;20052;-84
2022/11/22 10:59:13;;;;;;;4.93;1.92;;;6.90;99.90;;;;;;5036697;28;20123;-84
2022/11/22 11:02:16;;;;;;;8.68;1.92;;;6.90;99.90;;;;;;5034530;28;20063;-85
2022/11/22 11:04:42;;;;;;;8.10;2.05;;;7.00;99.90;;;;;;5035495;28;20053;-82
2022/11/22 11:07:21;;;;;;;8.63;1.85;;;7.10;99.90;;;;;;5018294;28;20124;-82
2022/11/22 11:09:59;;;;;;;8.80;2.85;;;7.10;99.90;;;;;;5003638;28;20052;-83
2022/11/22 11:12:45;;;;;;;7.82;1.83;;;7.10;99.90;;;;;;5040436;28;20103;-83
2022/11/22 11:15:20;;;;;;;9.35;2.35;;;7.00;99.90;;;;;;5045877;28;20056;-83
2022/11/22 11:17:47;;;;;;;8.85;2.20;;;7.00;99.90;;;;;;5032625;28;20044;-85
2022/11/22 11:20:24;;;;;;;8.18;2.40;;;7.10;99.90;;;;;;5023934;28;20045;-84
2022/11/22 11:22:50;;;;;;;8.05;2.28;;;7.20;99.90;;;;;;5049433;28;20044;-85
2022/11/22 11:25:29;;;;;;;8.52;2.30;;;7.10;99.90;;;;;;5033520;28;20524;-85
2022/11/22 11:27:57;;;;;;;6.78;2.00;;;7.10;99.90;;;;;;5028612;28;20067;-86
2022/11/22 11:30:23;;;;;;;10.90;2.92;;;7.10;99.90;;;;;;5056558;28;20041;-84
2022/11/22 11:32:53;;;;;;;6.05;2.33;;;7.10;99.90;;;;;;5037973;28;20067;-85
2022/11/22 11:35:20;;;;;;;8.27;2.30;;;7.10;99.90;;;;;;5040408;28;20133;-84
2022/11/22 11:37:46;;;;;;;7.78;2.00;;;7.10;99.90;;;;;;5047130;28;20048;-84
2022/11/22 11:40:28;;;;;;;8.30;2.20;;;7.20;99.90;;;;;;5076369;28;20104;-84
2022/11/22 11:43:14;;;;;;;4.63;1.85;;;7.10;99.90;;;;;;5048250;28;20045;-84
2022/11/22 11:45:39;;;;;;;7.20;1.85;;;7.10;99.90;;;;;;5054302;28;20053;-85
2022/11/22 11:48:34;;;;;;;8.05;2.05;;;7.30;99.90;;;;;;5061145;28;20135;-87
2022/11/22 11:51:31;;;;;;;9.52;2.15;;;7.30;99.90;;;;;;5036021;28;20037;-86
2022/11/22 11:54:00;;;;;;;8.05;1.95;;;7.20;99.90;;;;;;5044341;28;20541;-83
2022/11/22 11:56:32;;;;;;;8.23;2.83;;;7.20;99.90;;;;;;5027195;28;20044;-84
2022/11/22 11:58:58;;;;;;;9.10;2.63;;;7.30;99.90;;;;;;5030029;28;20048;-84
2022/11/22 12:01:24;;;;;;;7.28;2.17;;;7.40;99.90;;;;;;5030671;28;20110;-82
2022/11/22 12:03:59;;;;;;;7.40;2.00;;;7.40;99.90;;;;;;5029489;28;20048;-83
2022/11/22 12:06:29;;;;;;;10.25;2.17;;;7.50;99.90;;;;;;5029518;28;20044;-83
2022/11/22 12:08:56;;;;;;;7.32;1.92;;;7.60;99.90;;;;;;5045570;28;20044;-84
2022/11/22 12:11:44;;;;;;;7.72;2.35;;;7.60;99.90;;;;;;5055968;28;20072;-83
2022/11/22 12:14:11;;;;;;;7.30;2.15;;;7.60;99.90;;;;;;5039674;28;20093;-83
2022/11/22 12:16:46;;;;;;;5.28;2.08;;;7.60;99.90;;;;;;5039771;28;20075;-83
2022/11/22 12:19:28;;;;;;;4.65;2.03;;;7.70;99.90;;;;;;5040000;28;20135;-82
2022/11/22 12:22:17;;;;;;;8.35;1.95;;;7.60;99.90;;;;;;5055227;28;20491;-82
2022/11/22 12:24:52;;;;;;;10.25;1.95;;;7.70;99.90;;;;;;5040323;28;20455;-83
2022/11/22 12:27:17;;;;;;;8.00;2.35;;;7.70;99.90;;;;;;5056776;28;20048;-83
2022/11/22 12:29:43;;;;;;;7.47;2.05;;;7.90;99.90;;;;;;5022919;28;20036;-82
2022/11/22 12:32:26;;;;;;;7.10;1.90;;;7.80;99.90;;;;;;5069890;28;20045;-83
2022/11/22 12:35:13;;;;;;;7.93;1.95;;;7.80;99.90;;;;;;5041589;28;20049;-83
2022/11/22 12:37:40;;;;;;;5.55;2.05;;;7.80;99.90;;;;;;5036302;28;20142;-83
2022/11/22 12:40:32;;;;;;;4.45;1.67;;;7.80;99.90;;;;;;5019694;28;20053;-83
2022/11/22 12:42:59;;;;;;;6.80;2.10;;;7.80;99.90;;;;;;5034585;28;20063;-81
2022/11/22 12:45:37;;;;;;;6.85;2.08;;;7.80;99.90;;;;;;5020793;28;20527;-84
2022/11/22 12:48:15;;;;;;;7.22;2.55;;;7.80;99.90;;;;;;5027015;28;20056;-82
2022/11/22 12:50:46;;;;;;;9.55;2.53;;;7.70;99.90;;;;;;5004460;28;20055;-82
2022/11/22 12:53:13;;;;;;;4.63;2.03;;;7.70;99.90;;;;;;5019530;28;20145;-84
2022/11/22 12:55:58;;;;;;;8.15;1.88;;;7.80;99.90;;;;;;5035434;28;20064;-82
2022/11/22 12:58:40;;;;;;;7.18;2.05;;;7.70;99.90;;;;;;5011599;28;20103;-82
2022/11/22 13:01:14;;;;;;;5.47;1.60;;;7.60;99.90;;;;;;5049914;28;20048;-83
2022/11/22 13:03:48;;;;;;;8.90;1.80;;;7.70;99.90;;;;;;5035247;28;20076;-84
2022/11/22 13:06:13;;;;;;;10.30;2.10;;;7.60;99.90;;;;;;5046075;28;20417;-82
2022/11/22 13:08:46;;;;;;;11.82;2.30;;;7.60;99.90;;;;;;5002365;28;20045;-84